sensor_id;sensor_type;location;lat;lon;timestamp;pressure;altitude;pressure_sealevel;temperature;humidity
80103;BME280;69865;47.648;19.030;2023-05-10T00:00:05;100746.34;;;10.82;64.15
80103;BME280;69865;47.648;19.030;2023-05-10T00:00:35;100746.56;;;10.79;63.78
80103;BME280;69865;47.648;19.030;2023-05-10T00:01:06;100744.53;;;10.83;62.77
80103;BME280;69865;47.648;19.030;2023-05-10T00:01:37;100748.84;;;10.84;63.10
80103;BME280;69865;47.648;19.030;2023-05-10T00:02:08;100750.53;;;10.85;62.93
80103;BME280;69865;47.648;19.030;2023-05-10T00:02:38;100742.88;;;10.82;63.61
80103;BME280;69865;47.648;19.030;2023-05-10T00:03:09;100749.09;;;10.81;63.27
80103;BME280;69865;47.648;19.030;2023-05-10T00:03:40;100745.50;;;10.82;62.84
80103;BME280;69865;47.648;19.030;2023-05-10T00:04:11;100752.44;;;10.83;63.83
80103;BME280;69865;47.648;19.030;2023-05-10T00:04:41;100749.22;;;10.79;63.63
80103;BME280;69865;47.648;19.030;2023-05-10T00:05:12;100747.56;;;10.78;64.59
80103;BME280;69865;47.648;19.030;2023-05-10T00:05:43;100743.94;;;10.79;64.40
80103;BME280;69865;47.648;19.030;2023-05-10T00:06:14;100746.56;;;10.79;64.42
80103;BME280;69865;47.648;19.030;2023-05-10T00:06:44;100751.16;;;10.77;63.11
80103;BME280;69865;47.648;19.030;2023-05-10T00:07:15;100751.00;;;10.79;63.34
80103;BME280;69865;47.648;19.030;2023-05-10T00:07:46;100744.09;;;10.78;64.04
80103;BME280;69865;47.648;19.030;2023-05-10T00:08:17;100736.28;;;10.76;64.35
80103;BME280;69865;47.648;19.030;2023-05-10T00:08:47;100738.44;;;10.71;64.57
80103;BME280;69865;47.648;19.030;2023-05-10T00:09:18;100743.25;;;10.77;63.43
80103;BME280;69865;47.648;19.030;2023-05-10T00:09:49;100743.25;;;10.77;65.28
80103;BME280;69865;47.648;19.030;2023-05-10T00:10:20;100743.59;;;10.73;64.06
80103;BME280;69865;47.648;19.030;2023-05-10T00:10:51;100742.88;;;10.71;65.46
80103;BME280;69865;47.648;19.030;2023-05-10T00:11:22;100740.50;;;10.68;65.51
80103;BME280;69865;47.648;19.030;2023-05-10T00:11:52;100739.81;;;10.66;64.45
80103;BME280;69865;47.648;19.030;2023-05-10T00:12:23;100736.22;;;10.67;64.83
80103;BME280;69865;47.648;19.030;2023-05-10T00:12:54;100739.06;;;10.64;64.80
80103;BME280;69865;47.648;19.030;2023-05-10T00:13:25;100734.91;;;10.61;64.73
80103;BME280;69865;47.648;19.030;2023-05-10T00:13:55;100742.81;;;10.61;64.43
80103;BME280;69865;47.648;19.030;2023-05-10T00:14:26;100735.84;;;10.60;64.83
80103;BME280;69865;47.648;19.030;2023-05-10T00:14:58;100738.00;;;10.55;64.17
80103;BME280;69865;47.648;19.030;2023-05-10T00:15:29;100735.78;;;10.51;63.95
80103;BME280;69865;47.648;19.030;2023-05-10T00:16:00;100736.56;;;10.51;64.87
80103;BME280;69865;47.648;19.030;2023-05-10T00:16:30;100737.78;;;10.47;65.71
80103;BME280;69865;47.648;19.030;2023-05-10T00:17:01;100736.25;;;10.45;65.49
80103;BME280;69865;47.648;19.030;2023-05-10T00:17:32;100738.28;;;10.41;65.16
80103;BME280;69865;47.648;19.030;2023-05-10T00:18:03;100733.53;;;10.35;66.63
80103;BME280;69865;47.648;19.030;2023-05-10T00:18:33;100735.31;;;10.34;65.90
80103;BME280;69865;47.648;19.030;2023-05-10T00:19:04;100732.09;;;10.31;66.04
80103;BME280;69865;47.648;19.030;2023-05-10T00:19:35;100736.97;;;10.24;66.63
80103;BME280;69865;47.648;19.030;2023-05-10T00:20:06;100740.81;;;10.20;67.00
80103;BME280;69865;47.648;19.030;2023-05-10T00:20:37;100735.78;;;10.17;66.69
80103;BME280;69865;47.648;19.030;2023-05-10T00:21:08;100736.97;;;10.13;67.86
80103;BME280;69865;47.648;19.030;2023-05-10T00:21:39;100731.94;;;10.10;67.72
80103;BME280;69865;47.648;19.030;2023-05-10T00:22:09;100738.50;;;10.05;67.34
80103;BME280;69865;47.648;19.030;2023-05-10T00:22:40;100731.94;;;9.99;67.01
80103;BME280;69865;47.648;19.030;2023-05-10T00:23:11;100733.16;;;9.95;67.90
80103;BME280;69865;47.648;19.030;2023-05-10T00:23:42;100735.16;;;9.91;67.74
80103;BME280;69865;47.648;19.030;2023-05-10T00:24:12;100735.53;;;9.87;68.27
80103;BME280;69865;47.648;19.030;2023-05-10T00:24:43;100737.53;;;9.83;68.26
80103;BME280;69865;47.648;19.030;2023-05-10T00:25:14;100723.91;;;9.78;68.85
80103;BME280;69865;47.648;19.030;2023-05-10T00:25:45;100724.13;;;9.75;67.96
80103;BME280;69865;47.648;19.030;2023-05-10T00:26:15;100727.94;;;9.71;68.23
80103;BME280;69865;47.648;19.030;2023-05-10T00:26:46;100727.50;;;9.66;68.44
80103;BME280;69865;47.648;19.030;2023-05-10T00:27:17;100721.75;;;9.61;69.03
80103;BME280;69865;47.648;19.030;2023-05-10T00:27:48;100733.09;;;9.62;68.84
80103;BME280;69865;47.648;19.030;2023-05-10T00:28:18;100728.28;;;9.56;69.15
80103;BME280;69865;47.648;19.030;2023-05-10T00:28:49;100730.31;;;9.52;69.18
80103;BME280;69865;47.648;19.030;2023-05-10T00:29:20;100723.63;;;9.48;69.68
80103;BME280;69865;47.648;19.030;2023-05-10T00:29:50;100728.16;;;9.46;70.13
80103;BME280;69865;47.648;19.030;2023-05-10T00:30:23;100726.00;;;9.40;71.22
80103;BME280;69865;47.648;19.030;2023-05-10T00:30:54;100733.50;;;9.33;70.50
80103;BME280;69865;47.648;19.030;2023-05-10T00:31:25;100723.09;;;9.32;70.51
80103;BME280;69865;47.648;19.030;2023-05-10T00:31:55;100724.06;;;9.31;70.67
80103;BME280;69865;47.648;19.030;2023-05-10T00:32:26;100724.19;;;9.29;70.94
80103;BME280;69865;47.648;19.030;2023-05-10T00:32:57;100727.75;;;9.28;71.53
80103;BME280;69865;47.648;19.030;2023-05-10T00:33:28;100727.03;;;9.26;71.74
80103;BME280;69865;47.648;19.030;2023-05-10T00:33:58;100728.09;;;9.24;71.75
80103;BME280;69865;47.648;19.030;2023-05-10T00:34:29;100720.44;;;9.21;72.25
80103;BME280;69865;47.648;19.030;2023-05-10T00:35:00;100730.34;;;9.17;72.23
80103;BME280;69865;47.648;19.030;2023-05-10T00:35:30;100725.44;;;9.13;72.03
80103;BME280;69865;47.648;19.030;2023-05-10T00:36:01;100725.56;;;9.11;72.07
80103;BME280;69865;47.648;19.030;2023-05-10T00:36:32;100726.38;;;9.12;72.28
80103;BME280;69865;47.648;19.030;2023-05-10T00:37:02;100723.13;;;9.08;71.58
80103;BME280;69865;47.648;19.030;2023-05-10T00:37:33;100725.75;;;9.08;72.52
80103;BME280;69865;47.648;19.030;2023-05-10T00:38:04;100726.50;;;9.10;71.95
80103;BME280;69865;47.648;19.030;2023-05-10T00:38:35;100717.19;;;9.06;71.74
80103;BME280;69865;47.648;19.030;2023-05-10T00:39:05;100720.88;;;9.04;72.10
80103;BME280;69865;47.648;19.030;2023-05-10T00:39:36;100720.03;;;9.03;72.00
80103;BME280;69865;47.648;19.030;2023-05-10T00:40:07;100718.47;;;9.01;72.06
80103;BME280;69865;47.648;19.030;2023-05-10T00:40:38;100736.00;;;9.00;71.69
80103;BME280;69865;47.648;19.030;2023-05-10T00:41:09;100730.88;;;8.99;71.93
80103;BME280;69865;47.648;19.030;2023-05-10T00:41:40;100730.88;;;8.99;72.08
80103;BME280;69865;47.648;19.030;2023-05-10T00:42:10;100730.97;;;8.97;72.17
80103;BME280;69865;47.648;19.030;2023-05-10T00:42:41;100731.81;;;8.98;72.58
80103;BME280;69865;47.648;19.030;2023-05-10T00:43:12;100735.41;;;8.96;72.81
80103;BME280;69865;47.648;19.030;2023-05-10T00:43:42;100725.72;;;8.97;72.87
80103;BME280;69865;47.648;19.030;2023-05-10T00:44:13;100728.50;;;8.95;72.89
80103;BME280;69865;47.648;19.030;2023-05-10T00:44:44;100733.00;;;8.93;73.00
80103;BME280;69865;47.648;19.030;2023-05-10T00:45:15;100730.47;;;8.92;73.04
80103;BME280;69865;47.648;19.030;2023-05-10T00:45:47;100733.09;;;8.92;72.79
80103;BME280;69865;47.648;19.030;2023-05-10T00:46:18;100736.56;;;8.92;73.00
80103;BME280;69865;47.648;19.030;2023-05-10T00:46:49;100734.69;;;8.94;72.99
80103;BME280;69865;47.648;19.030;2023-05-10T00:47:20;100730.28;;;8.95;72.98
80103;BME280;69865;47.648;19.030;2023-05-10T00:47:51;100733.00;;;8.93;72.88
80103;BME280;69865;47.648;19.030;2023-05-10T00:48:22;100733.09;;;8.92;72.87
80103;BME280;69865;47.648;19.030;2023-05-10T00:48:53;100738.47;;;8.90;73.07
80103;BME280;69865;47.648;19.030;2023-05-10T00:49:24;100735.84;;;8.90;73.16
80103;BME280;69865;47.648;19.030;2023-05-10T00:49:55;100730.59;;;8.90;72.89
80103;BME280;69865;47.648;19.030;2023-05-10T00:50:26;100730.47;;;8.92;72.87
80103;BME280;69865;47.648;19.030;2023-05-10T00:50:57;100733.94;;;8.92;73.02
80103;BME280;69865;47.648;19.030;2023-05-10T00:51:28;100730.38;;;8.93;72.85
80103;BME280;69865;47.648;19.030;2023-05-10T00:51:59;100734.78;;;8.93;73.14
80103;BME280;69865;47.648;19.030;2023-05-10T00:52:30;100731.44;;;8.91;73.22
80103;BME280;69865;47.648;19.030;2023-05-10T00:53:02;100731.44;;;8.91;73.17
80103;BME280;69865;47.648;19.030;2023-05-10T00:53:34;100732.38;;;8.90;73.40
80103;BME280;69865;47.648;19.030;2023-05-10T00:54:05;100734.19;;;8.89;73.31
80103;BME280;69865;47.648;19.030;2023-05-10T00:54:36;100728.41;;;8.84;72.94
80103;BME280;69865;47.648;19.030;2023-05-10T00:55:07;100731.38;;;8.80;74.11
80103;BME280;69865;47.648;19.030;2023-05-10T00:55:39;100728.66;;;8.81;73.49
80103;BME280;69865;47.648;19.030;2023-05-10T00:56:10;100736.41;;;8.83;73.71
80103;BME280;69865;47.648;19.030;2023-05-10T00:56:42;100727.56;;;8.84;73.90
80103;BME280;69865;47.648;19.030;2023-05-10T00:57:12;100726.84;;;8.82;73.59
80103;BME280;69865;47.648;19.030;2023-05-10T00:57:43;100726.25;;;8.78;74.26
80103;BME280;69865;47.648;19.030;2023-05-10T00:58:14;100727.28;;;8.76;74.40
80103;BME280;69865;47.648;19.030;2023-05-10T00:58:45;100723.25;;;8.72;74.53
80103;BME280;69865;47.648;19.030;2023-05-10T00:59:16;100733.50;;;8.75;74.54
80103;BME280;69865;47.648;19.030;2023-05-10T00:59:48;100727.66;;;8.71;74.34
80103;BME280;69865;47.648;19.030;2023-05-10T01:00:19;100726.91;;;8.69;74.52
80103;BME280;69865;47.648;19.030;2023-05-10T01:00:51;100728.91;;;8.66;74.65
80103;BME280;69865;47.648;19.030;2023-05-10T01:01:22;100726.41;;;8.64;74.32
80103;BME280;69865;47.648;19.030;2023-05-10T01:01:53;100723.06;;;8.62;74.88
80103;BME280;69865;47.648;19.030;2023-05-10T01:02:24;100725.69;;;8.62;75.01
80103;BME280;69865;47.648;19.030;2023-05-10T01:02:55;100725.59;;;8.64;74.46
80103;BME280;69865;47.648;19.030;2023-05-10T01:03:26;100726.53;;;8.63;74.39
80103;BME280;69865;47.648;19.030;2023-05-10T01:03:57;100718.66;;;8.63;74.97
80103;BME280;69865;47.648;19.030;2023-05-10T01:04:28;100723.28;;;8.59;75.39
80103;BME280;69865;47.648;19.030;2023-05-10T01:05:01;100718.13;;;8.58;75.27
80103;BME280;69865;47.648;19.030;2023-05-10T01:05:32;100719.69;;;8.60;75.60
80103;BME280;69865;47.648;19.030;2023-05-10T01:06:04;100725.78;;;8.61;75.37
80103;BME280;69865;47.648;19.030;2023-05-10T01:06:34;100718.75;;;8.61;75.69
80103;BME280;69865;47.648;19.030;2023-05-10T01:07:05;100721.38;;;8.61;75.28
80103;BME280;69865;47.648;19.030;2023-05-10T01:07:36;100727.56;;;8.60;75.73
80103;BME280;69865;47.648;19.030;2023-05-10T01:08:07;100723.38;;;8.58;75.63
80103;BME280;69865;47.648;19.030;2023-05-10T01:08:38;100719.22;;;8.55;76.03
80103;BME280;69865;47.648;19.030;2023-05-10T01:09:09;100720.84;;;8.56;76.10
80103;BME280;69865;47.648;19.030;2023-05-10T01:09:40;100718.22;;;8.56;76.02
80103;BME280;69865;47.648;19.030;2023-05-10T01:10:11;100723.38;;;8.58;75.98
80103;BME280;69865;47.648;19.030;2023-05-10T01:10:43;100716.44;;;8.57;75.40
80103;BME280;69865;47.648;19.030;2023-05-10T01:11:14;100718.97;;;8.58;76.15
80103;BME280;69865;47.648;19.030;2023-05-10T01:11:45;100718.13;;;8.58;76.20
80103;BME280;69865;47.648;19.030;2023-05-10T01:12:16;100711.09;;;8.58;76.49
80103;BME280;69865;47.648;19.030;2023-05-10T01:12:47;100722.44;;;8.59;76.72
80103;BME280;69865;47.648;19.030;2023-05-10T01:13:29;100722.44;;;8.59;76.54
80103;BME280;69865;47.648;19.030;2023-05-10T01:14:01;100720.66;;;8.59;76.50
80103;BME280;69865;47.648;19.030;2023-05-10T01:14:33;100719.22;;;8.55;75.89
80103;BME280;69865;47.648;19.030;2023-05-10T01:15:05;100717.63;;;8.53;77.08
80103;BME280;69865;47.648;19.030;2023-05-10T01:15:37;100723.00;;;8.51;76.74
80103;BME280;69865;47.648;19.030;2023-05-10T01:16:11;100723.09;;;8.49;76.57
80103;BME280;69865;47.648;19.030;2023-05-10T01:16:42;100730.13;;;8.49;76.90
80103;BME280;69865;47.648;19.030;2023-05-10T01:17:15;100724.16;;;8.47;76.79
80103;BME280;69865;47.648;19.030;2023-05-10T01:17:47;100717.22;;;8.46;76.57
80103;BME280;69865;47.648;19.030;2023-05-10T01:18:20;100727.63;;;8.47;76.67
80103;BME280;69865;47.648;19.030;2023-05-10T01:18:52;100718.78;;;8.48;76.54
80103;BME280;69865;47.648;19.030;2023-05-10T01:19:25;100721.53;;;8.47;77.06
80103;BME280;69865;47.648;19.030;2023-05-10T01:19:56;100717.13;;;8.47;76.94
80103;BME280;69865;47.648;19.030;2023-05-10T01:20:32;100717.94;;;8.48;76.75
80103;BME280;69865;47.648;19.030;2023-05-10T01:21:17;100720.47;;;8.49;76.70
80103;BME280;69865;47.648;19.030;2023-05-10T01:21:56;100715.44;;;8.46;76.94
80103;BME280;69865;47.648;19.030;2023-05-10T01:25:13;100722.25;;;8.49;76.57
80103;BME280;69865;47.648;19.030;2023-05-10T01:26:14;100724.03;;;8.48;76.37
80103;BME280;69865;47.648;19.030;2023-05-10T01:27:03;100721.72;;;8.44;76.48
80103;BME280;69865;47.648;19.030;2023-05-10T01:27:52;100725.34;;;8.43;76.52
80103;BME280;69865;47.648;19.030;2023-05-10T01:28:58;100722.09;;;8.39;77.30
80103;BME280;69865;47.648;19.030;2023-05-10T01:32:13;100719.03;;;8.33;77.02
80103;BME280;69865;47.648;19.030;2023-05-10T01:32:51;100724.91;;;8.36;76.61
80103;BME280;69865;47.648;19.030;2023-05-10T01:33:27;100716.41;;;8.33;77.38
80103;BME280;69865;47.648;19.030;2023-05-10T01:34:06;100717.25;;;8.33;77.33
80103;BME280;69865;47.648;19.030;2023-05-10T01:34:46;100720.63;;;8.35;77.66
80103;BME280;69865;47.648;19.030;2023-05-10T01:35:24;100715.25;;;8.37;77.42
80103;BME280;69865;47.648;19.030;2023-05-10T01:36:04;100716.31;;;8.34;77.50
80103;BME280;69865;47.648;19.030;2023-05-10T01:36:43;100719.66;;;8.36;77.72
80103;BME280;69865;47.648;19.030;2023-05-10T01:37:20;100721.47;;;8.36;77.67
80103;BME280;69865;47.648;19.030;2023-05-10T01:37:59;100720.81;;;8.32;77.61
80103;BME280;69865;47.648;19.030;2023-05-10T01:38:42;100713.94;;;8.31;77.75
80103;BME280;69865;47.648;19.030;2023-05-10T01:39:20;100718.44;;;8.29;78.11
80103;BME280;69865;47.648;19.030;2023-05-10T01:40:01;100722.09;;;8.27;78.04
80103;BME280;69865;47.648;19.030;2023-05-10T01:40:39;100726.59;;;8.25;77.98
80103;BME280;69865;47.648;19.030;2023-05-10T01:41:16;100721.56;;;8.22;77.93
80103;BME280;69865;47.648;19.030;2023-05-10T01:41:52;100723.25;;;8.23;78.28
80103;BME280;69865;47.648;19.030;2023-05-10T01:42:28;100727.56;;;8.24;77.98
80103;BME280;69865;47.648;19.030;2023-05-10T01:43:02;100725.66;;;8.26;78.53
80103;BME280;69865;47.648;19.030;2023-05-10T01:43:40;100723.88;;;8.26;78.18
80103;BME280;69865;47.648;19.030;2023-05-10T01:44:18;100721.25;;;8.26;77.84
80103;BME280;69865;47.648;19.030;2023-05-10T01:44:58;100721.16;;;8.28;78.09
80103;BME280;69865;47.648;19.030;2023-05-10T01:45:33;100720.22;;;8.29;78.13
80103;BME280;69865;47.648;19.030;2023-05-10T01:46:10;100723.03;;;8.26;78.84
80103;BME280;69865;47.648;19.030;2023-05-10T01:46:50;100720.41;;;8.26;78.75
80103;BME280;69865;47.648;19.030;2023-05-10T01:47:32;100724.59;;;8.28;78.46
80103;BME280;69865;47.648;19.030;2023-05-10T01:48:07;100721.06;;;8.29;79.04
80103;BME280;69865;47.648;19.030;2023-05-10T01:48:42;100714.88;;;8.30;78.80
80103;BME280;69865;47.648;19.030;2023-05-10T01:49:20;100714.97;;;8.29;78.74
80103;BME280;69865;47.648;19.030;2023-05-10T01:49:55;100714.97;;;8.29;78.51
80103;BME280;69865;47.648;19.030;2023-05-10T01:50:29;100714.41;;;8.36;78.61
80103;BME280;69865;47.648;19.030;2023-05-10T01:51:02;100722.81;;;8.41;78.59
80103;BME280;69865;47.648;19.030;2023-05-10T01:51:39;100721.72;;;8.44;78.41
80103;BME280;69865;47.648;19.030;2023-05-10T01:52:14;100722.47;;;8.46;78.60
80103;BME280;69865;47.648;19.030;2023-05-10T01:52:51;100709.97;;;8.49;78.49
80103;BME280;69865;47.648;19.030;2023-05-10T01:53:23;100712.16;;;8.56;78.63
80103;BME280;69865;47.648;19.030;2023-05-10T01:54:00;100716.56;;;8.55;78.56
80103;BME280;69865;47.648;19.030;2023-05-10T01:54:33;100717.19;;;8.59;79.13
80103;BME280;69865;47.648;19.030;2023-05-10T01:55:08;100715.28;;;8.61;78.98
80103;BME280;69865;47.648;19.030;2023-05-10T01:55:44;100712.56;;;8.62;79.23
80103;BME280;69865;47.648;19.030;2023-05-10T01:56:19;100713.25;;;8.64;79.16
80103;BME280;69865;47.648;19.030;2023-05-10T01:56:55;100715.88;;;8.64;78.94
80103;BME280;69865;47.648;19.030;2023-05-10T01:57:32;100721.97;;;8.65;78.74
80103;BME280;69865;47.648;19.030;2023-05-10T01:58:06;100715.09;;;8.64;78.42
80103;BME280;69865;47.648;19.030;2023-05-10T01:58:40;100715.69;;;8.67;78.24
80103;BME280;69865;47.648;19.030;2023-05-10T01:59:15;100720.72;;;8.70;78.52
80103;BME280;69865;47.648;19.030;2023-05-10T01:59:50;100714.63;;;8.70;78.57
80103;BME280;69865;47.648;19.030;2023-05-10T02:00:23;100717.00;;;8.73;78.06
80103;BME280;69865;47.648;19.030;2023-05-10T02:00:55;100720.25;;;8.76;77.36
80103;BME280;69865;47.648;19.030;2023-05-10T02:01:28;100716.69;;;8.77;77.43
80103;BME280;69865;47.648;19.030;2023-05-10T02:01:59;100713.22;;;8.77;77.41
80103;BME280;69865;47.648;19.030;2023-05-10T02:02:37;100713.22;;;8.77;76.59
80103;BME280;69865;47.648;19.030;2023-05-10T02:03:10;100711.94;;;8.82;77.34
80103;BME280;69865;47.648;19.030;2023-05-10T02:03:43;100710.88;;;8.85;76.93
80103;BME280;69865;47.648;19.030;2023-05-10T02:04:17;100713.91;;;8.91;75.99
80103;BME280;69865;47.648;19.030;2023-05-10T02:04:50;100712.72;;;8.95;76.54
80103;BME280;69865;47.648;19.030;2023-05-10T02:05:23;100707.09;;;9.00;76.22
80103;BME280;69865;47.648;19.030;2023-05-10T02:05:56;100707.84;;;9.02;75.84
80103;BME280;69865;47.648;19.030;2023-05-10T02:06:28;100710.97;;;9.07;75.78
80103;BME280;69865;47.648;19.030;2023-05-10T02:06:58;100709.16;;;9.08;75.38
80103;BME280;69865;47.648;19.030;2023-05-10T02:07:32;100707.50;;;9.07;75.63
80103;BME280;69865;47.648;19.030;2023-05-10T02:08:06;100707.38;;;9.08;75.38
80103;BME280;69865;47.648;19.030;2023-05-10T02:08:40;100708.13;;;9.10;75.34
80103;BME280;69865;47.648;19.030;2023-05-10T02:09:13;100700.22;;;9.10;74.89
80103;BME280;69865;47.648;19.030;2023-05-10T02:09:46;100701.41;;;9.06;75.13
80103;BME280;69865;47.648;19.030;2023-05-10T02:10:19;100697.72;;;9.09;74.89
80103;BME280;69865;47.648;19.030;2023-05-10T02:10:53;100701.06;;;9.11;75.09
80103;BME280;69865;47.648;19.030;2023-05-10T02:11:27;100699.06;;;9.14;74.78
80103;BME280;69865;47.648;19.030;2023-05-10T02:12:01;100695.47;;;9.15;74.78
80103;BME280;69865;47.648;19.030;2023-05-10T02:12:35;100699.66;;;9.18;74.59
80103;BME280;69865;47.648;19.030;2023-05-10T02:13:07;100704.81;;;9.19;75.08
80103;BME280;69865;47.648;19.030;2023-05-10T02:13:39;100694.84;;;9.12;75.03
80103;BME280;69865;47.648;19.030;2023-05-10T02:14:11;100697.59;;;9.10;74.86
80103;BME280;69865;47.648;19.030;2023-05-10T02:14:44;100693.78;;;9.14;74.77
80103;BME280;69865;47.648;19.030;2023-05-10T02:15:22;100697.59;;;9.10;74.55
80103;BME280;69865;47.648;19.030;2023-05-10T02:15:54;100696.88;;;9.08;75.06
80103;BME280;69865;47.648;19.030;2023-05-10T02:16:27;100697.00;;;9.07;74.89
80103;BME280;69865;47.648;19.030;2023-05-10T02:17:00;100698.53;;;9.09;74.54
80103;BME280;69865;47.648;19.030;2023-05-10T02:17:34;100695.59;;;9.14;74.78
80103;BME280;69865;47.648;19.030;2023-05-10T02:18:06;100695.69;;;9.12;74.61
80103;BME280;69865;47.648;19.030;2023-05-10T02:18:40;100694.75;;;9.13;75.12
80103;BME280;69865;47.648;19.030;2023-05-10T02:19:12;100688.78;;;9.11;75.03
80103;BME280;69865;47.648;19.030;2023-05-10T02:19:44;100694.97;;;9.10;75.21
80103;BME280;69865;47.648;19.030;2023-05-10T02:20:19;100688.97;;;9.08;75.14
80103;BME280;69865;47.648;19.030;2023-05-10T02:20:52;100688.13;;;9.08;74.86
80103;BME280;69865;47.648;19.030;2023-05-10T02:21:26;100687.81;;;9.12;75.15
80103;BME280;69865;47.648;19.030;2023-05-10T02:21:59;100687.81;;;9.12;75.19
80103;BME280;69865;47.648;19.030;2023-05-10T02:22:31;100681.69;;;9.12;75.23
80103;BME280;69865;47.648;19.030;2023-05-10T02:23:03;100693.22;;;9.22;75.08
80103;BME280;69865;47.648;19.030;2023-05-10T02:23:36;100694.44;;;9.29;74.52
80103;BME280;69865;47.648;19.030;2023-05-10T02:24:09;100697.56;;;9.34;74.71
80103;BME280;69865;47.648;19.030;2023-05-10T02:24:43;100694.09;;;9.33;73.66
80103;BME280;69865;47.648;19.030;2023-05-10T02:25:15;100692.53;;;9.31;74.10
80103;BME280;69865;47.648;19.030;2023-05-10T02:25:48;100698.72;;;9.30;73.44
80103;BME280;69865;47.648;19.030;2023-05-10T02:26:22;100696.44;;;9.25;73.74
80103;BME280;69865;47.648;19.030;2023-05-10T02:26:54;100694.50;;;9.16;73.93
80103;BME280;69865;47.648;19.030;2023-05-10T02:27:27;100692.84;;;9.15;74.91
80103;BME280;69865;47.648;19.030;2023-05-10T02:28:01;100694.72;;;9.02;74.76
80103;BME280;69865;47.648;19.030;2023-05-10T02:28:34;100698.16;;;8.91;75.43
80103;BME280;69865;47.648;19.030;2023-05-10T02:29:07;100692.88;;;8.91;75.16
80103;BME280;69865;47.648;19.030;2023-05-10T02:29:39;100698.50;;;8.98;75.34
80103;BME280;69865;47.648;19.030;2023-05-10T02:30:11;100700.47;;;9.07;75.42
80103;BME280;69865;47.648;19.030;2023-05-10T02:30:43;100691.13;;;9.03;75.18
80103;BME280;69865;47.648;19.030;2023-05-10T02:31:14;100697.09;;;9.05;75.17
80103;BME280;69865;47.648;19.030;2023-05-10T02:31:45;100693.53;;;9.06;74.99
80103;BME280;69865;47.648;19.030;2023-05-10T02:32:17;100696.66;;;9.11;74.56
80103;BME280;69865;47.648;19.030;2023-05-10T02:32:50;100695.25;;;9.18;74.81
80103;BME280;69865;47.648;19.030;2023-05-10T02:33:22;100699.16;;;9.13;74.80
80103;BME280;69865;47.648;19.030;2023-05-10T02:33:54;100686.50;;;9.07;75.31
80103;BME280;69865;47.648;19.030;2023-05-10T02:34:26;100697.84;;;9.07;75.17
80103;BME280;69865;47.648;19.030;2023-05-10T02:34:59;100697.00;;;9.07;74.80
80103;BME280;69865;47.648;19.030;2023-05-10T02:35:32;100693.75;;;9.03;75.19
80103;BME280;69865;47.648;19.030;2023-05-10T02:36:06;100698.28;;;9.01;75.39
80103;BME280;69865;47.648;19.030;2023-05-10T02:36:38;100697.94;;;9.06;75.53
80103;BME280;69865;47.648;19.030;2023-05-10T02:37:12;100693.41;;;9.08;75.08
80103;BME280;69865;47.648;19.030;2023-05-10T02:37:45;100702.28;;;9.18;74.67
80103;BME280;69865;47.648;19.030;2023-05-10T02:38:19;100697.28;;;9.26;74.75
80103;BME280;69865;47.648;19.030;2023-05-10T02:38:51;100696.44;;;9.25;74.45
80103;BME280;69865;47.648;19.030;2023-05-10T02:39:24;100699.75;;;9.16;74.67
80103;BME280;69865;47.648;19.030;2023-05-10T02:39:56;100691.66;;;9.19;74.21
80103;BME280;69865;47.648;19.030;2023-05-10T02:40:29;100695.25;;;9.18;74.25
80103;BME280;69865;47.648;19.030;2023-05-10T02:41:01;100695.34;;;9.17;74.73
80103;BME280;69865;47.648;19.030;2023-05-10T02:41:33;100697.97;;;9.17;74.62
80103;BME280;69865;47.648;19.030;2023-05-10T02:42:05;100694.63;;;9.15;74.84
80103;BME280;69865;47.648;19.030;2023-05-10T02:42:38;100694.75;;;9.13;74.91
80103;BME280;69865;47.648;19.030;2023-05-10T02:43:14;100692.84;;;9.15;74.98
80103;BME280;69865;47.648;19.030;2023-05-10T02:43:48;100691.66;;;9.19;74.92
80103;BME280;69865;47.648;19.030;2023-05-10T02:44:22;100690.59;;;9.22;74.61
80103;BME280;69865;47.648;19.030;2023-05-10T02:44:56;100699.66;;;9.18;75.38
80103;BME280;69865;47.648;19.030;2023-05-10T02:45:31;100700.16;;;9.23;75.17
80103;BME280;69865;47.648;19.030;2023-05-10T02:46:03;100702.31;;;9.29;74.40
80103;BME280;69865;47.648;19.030;2023-05-10T02:46:34;100697.56;;;9.34;74.58
80103;BME280;69865;47.648;19.030;2023-05-10T02:47:04;100697.56;;;9.34;75.05
80103;BME280;69865;47.648;19.030;2023-05-10T02:47:35;100700.44;;;9.42;74.12
80103;BME280;69865;47.648;19.030;2023-05-10T02:48:08;100699.69;;;9.40;74.29
80103;BME280;69865;47.648;19.030;2023-05-10T02:48:38;100699.00;;;9.38;74.36
80103;BME280;69865;47.648;19.030;2023-05-10T02:49:09;100696.38;;;9.38;74.57
80103;BME280;69865;47.648;19.030;2023-05-10T02:49:40;100699.84;;;9.38;73.75
80103;BME280;69865;47.648;19.030;2023-05-10T02:50:11;100697.66;;;9.43;73.90
80103;BME280;69865;47.648;19.030;2023-05-10T02:50:44;100697.66;;;9.43;74.07
80103;BME280;69865;47.648;19.030;2023-05-10T02:51:18;100696.63;;;9.46;74.30
80103;BME280;69865;47.648;19.030;2023-05-10T02:51:55;100694.69;;;9.48;74.14
80103;BME280;69865;47.648;19.030;2023-05-10T02:52:30;100695.19;;;9.53;74.30
80103;BME280;69865;47.648;19.030;2023-05-10T02:53:11;100696.75;;;9.56;74.80
80103;BME280;69865;47.648;19.030;2023-05-10T02:53:46;100697.97;;;9.63;74.01
80103;BME280;69865;47.648;19.030;2023-05-10T02:54:24;100700.34;;;9.66;73.75
80103;BME280;69865;47.648;19.030;2023-05-10T02:55:01;100696.88;;;9.65;73.15
80103;BME280;69865;47.648;19.030;2023-05-10T02:55:37;100698.19;;;9.60;72.93
80103;BME280;69865;47.648;19.030;2023-05-10T02:56:12;100700.81;;;9.60;73.92
80103;BME280;69865;47.648;19.030;2023-05-10T02:56:56;100704.88;;;9.64;73.80
80103;BME280;69865;47.648;19.030;2023-05-10T02:57:29;100700.34;;;9.66;73.82